sensor_id;sensor_type;location;lat;lon;timestamp;temperature;humidity
3298;DHT22;1661;53.572;10.174;2023-09-07T00:01:13;21.30;81.80
3298;DHT22;1661;53.572;10.174;2023-09-07T00:03:42;21.20;82.00
3298;DHT22;1661;53.572;10.174;2023-09-07T00:06:09;21.20;81.90
3298;DHT22;1661;53.572;10.174;2023-09-07T00:08:35;21.20;81.90
3298;DHT22;1661;53.572;10.174;2023-09-07T00:11:03;21.20;81.50
3298;DHT22;1661;53.572;10.174;2023-09-07T00:13:30;21.20;81.60
3298;DHT22;1661;53.572;10.174;2023-09-07T00:15:58;21.20;81.50
3298;DHT22;1661;53.572;10.174;2023-09-07T00:18:26;21.20;81.50
3298;DHT22;1661;53.572;10.174;2023-09-07T00:20:54;21.20;81.40
3298;DHT22;1661;53.572;10.174;2023-09-07T00:23:21;21.20;81.20
3298;DHT22;1661;53.572;10.174;2023-09-07T00:25:48;21.20;81.10
3298;DHT22;1661;53.572;10.174;2023-09-07T00:28:15;21.20;81.60
3298;DHT22;1661;53.572;10.174;2023-09-07T00:30:41;21.20;81.40
3298;DHT22;1661;53.572;10.174;2023-09-07T00:33:08;21.10;81.70
3298;DHT22;1661;53.572;10.174;2023-09-07T00:35:36;21.10;81.50
3298;DHT22;1661;53.572;10.174;2023-09-07T00:38:05;21.10;81.70
3298;DHT22;1661;53.572;10.174;2023-09-07T00:40:31;21.10;81.60
3298;DHT22;1661;53.572;10.174;2023-09-07T00:42:59;21.10;81.90
3298;DHT22;1661;53.572;10.174;2023-09-07T00:45:26;21.00;82.00
3298;DHT22;1661;53.572;10.174;2023-09-07T00:47:52;21.00;81.90
3298;DHT22;1661;53.572;10.174;2023-09-07T00:50:20;21.00;82.10
3298;DHT22;1661;53.572;10.174;2023-09-07T00:52:47;21.00;82.30
3298;DHT22;1661;53.572;10.174;2023-09-07T00:55:15;20.90;82.10
3298;DHT22;1661;53.572;10.174;2023-09-07T00:57:43;20.90;81.90
3298;DHT22;1661;53.572;10.174;2023-09-07T01:00:11;20.90;82.40
3298;DHT22;1661;53.572;10.174;2023-09-07T01:02:38;20.90;82.30
3298;DHT22;1661;53.572;10.174;2023-09-07T01:05:05;20.90;81.70
3298;DHT22;1661;53.572;10.174;2023-09-07T01:07:37;20.90;81.80
3298;DHT22;1661;53.572;10.174;2023-09-07T01:10:04;20.80;82.10
3298;DHT22;1661;53.572;10.174;2023-09-07T01:12:34;20.80;82.00
3298;DHT22;1661;53.572;10.174;2023-09-07T01:15:00;20.80;82.60
3298;DHT22;1661;53.572;10.174;2023-09-07T01:17:28;20.70;82.70
3298;DHT22;1661;53.572;10.174;2023-09-07T01:19:57;20.70;82.80
3298;DHT22;1661;53.572;10.174;2023-09-07T01:22:32;20.70;82.80
3298;DHT22;1661;53.572;10.174;2023-09-07T01:25:00;20.60;83.10
3298;DHT22;1661;53.572;10.174;2023-09-07T01:27:27;20.60;83.20
3298;DHT22;1661;53.572;10.174;2023-09-07T01:29:54;20.60;83.60
3298;DHT22;1661;53.572;10.174;2023-09-07T01:32:21;20.50;83.70
3298;DHT22;1661;53.572;10.174;2023-09-07T01:34:48;20.50;83.80
3298;DHT22;1661;53.572;10.174;2023-09-07T01:37:15;20.50;83.90
3298;DHT22;1661;53.572;10.174;2023-09-07T01:39:43;20.50;83.60
3298;DHT22;1661;53.572;10.174;2023-09-07T01:42:10;20.40;83.40
3298;DHT22;1661;53.572;10.174;2023-09-07T01:44:36;20.40;83.60
3298;DHT22;1661;53.572;10.174;2023-09-07T01:47:03;20.40;83.60
3298;DHT22;1661;53.572;10.174;2023-09-07T01:49:30;20.50;83.50
3298;DHT22;1661;53.572;10.174;2023-09-07T01:51:57;20.40;83.30
3298;DHT22;1661;53.572;10.174;2023-09-07T01:54:24;20.40;83.50
3298;DHT22;1661;53.572;10.174;2023-09-07T01:56:52;20.40;83.60
3298;DHT22;1661;53.572;10.174;2023-09-07T01:59:19;20.40;83.60
3298;DHT22;1661;53.572;10.174;2023-09-07T02:01:46;20.40;83.60
3298;DHT22;1661;53.572;10.174;2023-09-07T02:04:12;20.40;83.80
3298;DHT22;1661;53.572;10.174;2023-09-07T02:06:39;20.30;83.90
3298;DHT22;1661;53.572;10.174;2023-09-07T02:09:06;20.30;84.10
3298;DHT22;1661;53.572;10.174;2023-09-07T02:11:33;20.20;84.70
3298;DHT22;1661;53.572;10.174;2023-09-07T02:14:01;20.20;84.70
3298;DHT22;1661;53.572;10.174;2023-09-07T02:16:28;20.10;84.90
3298;DHT22;1661;53.572;10.174;2023-09-07T02:19:01;20.10;85.30
3298;DHT22;1661;53.572;10.174;2023-09-07T02:21:29;20.00;85.30
3298;DHT22;1661;53.572;10.174;2023-09-07T02:23:55;20.00;85.40
3298;DHT22;1661;53.572;10.174;2023-09-07T02:26:22;20.00;85.40
3298;DHT22;1661;53.572;10.174;2023-09-07T02:28:49;20.00;85.50
3298;DHT22;1661;53.572;10.174;2023-09-07T02:31:17;19.90;85.60
3298;DHT22;1661;53.572;10.174;2023-09-07T02:33:44;19.90;85.60
3298;DHT22;1661;53.572;10.174;2023-09-07T02:36:10;19.90;85.10
3298;DHT22;1661;53.572;10.174;2023-09-07T02:38:37;19.90;85.20
3298;DHT22;1661;53.572;10.174;2023-09-07T02:41:04;19.90;85.10
3298;DHT22;1661;53.572;10.174;2023-09-07T02:43:31;19.90;84.80
3298;DHT22;1661;53.572;10.174;2023-09-07T02:45:58;19.90;84.60
3298;DHT22;1661;53.572;10.174;2023-09-07T02:48:26;19.90;84.60
3298;DHT22;1661;53.572;10.174;2023-09-07T02:50:53;19.90;84.10
3298;DHT22;1661;53.572;10.174;2023-09-07T02:53:19;20.00;83.90
3298;DHT22;1661;53.572;10.174;2023-09-07T02:55:46;20.00;84.00
3298;DHT22;1661;53.572;10.174;2023-09-07T02:58:13;20.00;84.10
3298;DHT22;1661;53.572;10.174;2023-09-07T03:00:42;20.00;84.30
3298;DHT22;1661;53.572;10.174;2023-09-07T03:03:10;19.90;84.50
3298;DHT22;1661;53.572;10.174;2023-09-07T03:05:40;19.90;85.10
3298;DHT22;1661;53.572;10.174;2023-09-07T03:08:07;19.90;84.30
3298;DHT22;1661;53.572;10.174;2023-09-07T03:10:35;19.90;83.90
3298;DHT22;1661;53.572;10.174;2023-09-07T03:13:01;19.90;84.00
3298;DHT22;1661;53.572;10.174;2023-09-07T03:15:29;19.90;83.40
3298;DHT22;1661;53.572;10.174;2023-09-07T03:17:56;19.90;83.30
3298;DHT22;1661;53.572;10.174;2023-09-07T03:20:22;19.90;83.50
3298;DHT22;1661;53.572;10.174;2023-09-07T03:22:50;19.90;83.30
3298;DHT22;1661;53.572;10.174;2023-09-07T03:25:17;19.90;83.40
3298;DHT22;1661;53.572;10.174;2023-09-07T03:27:44;19.90;83.60
3298;DHT22;1661;53.572;10.174;2023-09-07T03:30:11;19.90;83.50
3298;DHT22;1661;53.572;10.174;2023-09-07T03:32:38;19.90;83.50
3298;DHT22;1661;53.572;10.174;2023-09-07T03:35:05;19.90;83.70
3298;DHT22;1661;53.572;10.174;2023-09-07T03:37:35;19.80;83.60
3298;DHT22;1661;53.572;10.174;2023-09-07T03:40:05;19.80;83.50
3298;DHT22;1661;53.572;10.174;2023-09-07T03:42:34;19.80;83.70
3298;DHT22;1661;53.572;10.174;2023-09-07T03:45:01;19.80;83.70
3298;DHT22;1661;53.572;10.174;2023-09-07T03:47:28;19.80;83.70
3298;DHT22;1661;53.572;10.174;2023-09-07T03:49:55;19.80;83.60
3298;DHT22;1661;53.572;10.174;2023-09-07T03:52:23;19.70;83.20
3298;DHT22;1661;53.572;10.174;2023-09-07T03:54:53;19.70;82.70
3298;DHT22;1661;53.572;10.174;2023-09-07T03:57:21;19.70;82.40
3298;DHT22;1661;53.572;10.174;2023-09-07T03:59:48;19.70;82.70
3298;DHT22;1661;53.572;10.174;2023-09-07T04:02:15;19.70;82.40
3298;DHT22;1661;53.572;10.174;2023-09-07T04:04:43;19.70;82.20
3298;DHT22;1661;53.572;10.174;2023-09-07T04:07:10;19.70;82.40
3298;DHT22;1661;53.572;10.174;2023-09-07T04:09:37;19.70;82.70
3298;DHT22;1661;53.572;10.174;2023-09-07T04:12:04;19.70;82.40
3298;DHT22;1661;53.572;10.174;2023-09-07T04:14:33;19.70;82.40
3298;DHT22;1661;53.572;10.174;2023-09-07T04:17:00;19.70;82.20
3298;DHT22;1661;53.572;10.174;2023-09-07T04:19:27;19.70;82.80
3298;DHT22;1661;53.572;10.174;2023-09-07T04:21:54;19.60;82.60
3298;DHT22;1661;53.572;10.174;2023-09-07T04:24:21;19.60;82.60
3298;DHT22;1661;53.572;10.174;2023-09-07T04:26:48;19.60;82.20
3298;DHT22;1661;53.572;10.174;2023-09-07T04:29:15;19.60;82.00
3298;DHT22;1661;53.572;10.174;2023-09-07T04:31:43;19.50;81.70
3298;DHT22;1661;53.572;10.174;2023-09-07T04:34:10;19.50;82.30
3298;DHT22;1661;53.572;10.174;2023-09-07T04:36:36;19.50;82.90
3298;DHT22;1661;53.572;10.174;2023-09-07T04:39:04;19.50;82.50
3298;DHT22;1661;53.572;10.174;2023-09-07T04:41:30;19.50;82.60
3298;DHT22;1661;53.572;10.174;2023-09-07T04:43:57;19.40;82.90
3298;DHT22;1661;53.572;10.174;2023-09-07T04:46:24;19.40;83.40
3298;DHT22;1661;53.572;10.174;2023-09-07T04:48:52;19.40;83.50
3298;DHT22;1661;53.572;10.174;2023-09-07T04:51:19;19.40;83.40
3298;DHT22;1661;53.572;10.174;2023-09-07T04:53:47;19.40;83.40
3298;DHT22;1661;53.572;10.174;2023-09-07T04:56:14;19.40;83.20
3298;DHT22;1661;53.572;10.174;2023-09-07T04:58:42;19.30;84.10
3298;DHT22;1661;53.572;10.174;2023-09-07T05:01:10;19.30;84.00
3298;DHT22;1661;53.572;10.174;2023-09-07T05:03:37;19.30;83.90
3298;DHT22;1661;53.572;10.174;2023-09-07T05:06:07;19.30;84.10
3298;DHT22;1661;53.572;10.174;2023-09-07T05:08:33;19.30;84.60
3298;DHT22;1661;53.572;10.174;2023-09-07T05:11:01;19.30;84.60
3298;DHT22;1661;53.572;10.174;2023-09-07T05:13:29;19.30;84.50
3298;DHT22;1661;53.572;10.174;2023-09-07T05:15:57;19.30;84.80
3298;DHT22;1661;53.572;10.174;2023-09-07T05:18:24;19.30;85.10
3298;DHT22;1661;53.572;10.174;2023-09-07T05:20:51;19.30;85.30
3298;DHT22;1661;53.572;10.174;2023-09-07T05:23:20;19.20;85.50
3298;DHT22;1661;53.572;10.174;2023-09-07T05:25:47;19.20;85.50
3298;DHT22;1661;53.572;10.174;2023-09-07T05:28:16;19.20;85.40
3298;DHT22;1661;53.572;10.174;2023-09-07T05:30:43;19.20;85.50
3298;DHT22;1661;53.572;10.174;2023-09-07T05:33:10;19.30;85.70
3298;DHT22;1661;53.572;10.174;2023-09-07T05:35:37;19.30;85.70
3298;DHT22;1661;53.572;10.174;2023-09-07T05:38:04;19.30;85.50
3298;DHT22;1661;53.572;10.174;2023-09-07T05:40:35;19.40;85.50
3298;DHT22;1661;53.572;10.174;2023-09-07T05:43:03;19.50;85.60
3298;DHT22;1661;53.572;10.174;2023-09-07T05:45:30;19.50;85.80
3298;DHT22;1661;53.572;10.174;2023-09-07T05:47:57;19.60;85.70
3298;DHT22;1661;53.572;10.174;2023-09-07T05:50:24;19.70;85.60
3298;DHT22;1661;53.572;10.174;2023-09-07T05:52:50;19.70;85.60
3298;DHT22;1661;53.572;10.174;2023-09-07T05:55:17;19.80;85.20
3298;DHT22;1661;53.572;10.174;2023-09-07T05:57:45;19.90;84.70
3298;DHT22;1661;53.572;10.174;2023-09-07T06:00:13;20.00;84.60
3298;DHT22;1661;53.572;10.174;2023-09-07T06:02:41;20.00;84.50
3298;DHT22;1661;53.572;10.174;2023-09-07T06:05:08;20.10;84.40
3298;DHT22;1661;53.572;10.174;2023-09-07T06:07:35;20.10;84.30
3298;DHT22;1661;53.572;10.174;2023-09-07T06:10:02;20.20;84.10
3298;DHT22;1661;53.572;10.174;2023-09-07T06:12:31;20.20;84.00
3298;DHT22;1661;53.572;10.174;2023-09-07T06:14:59;20.20;84.20
3298;DHT22;1661;53.572;10.174;2023-09-07T06:17:26;20.30;84.10
3298;DHT22;1661;53.572;10.174;2023-09-07T06:19:53;20.40;83.80
3298;DHT22;1661;53.572;10.174;2023-09-07T06:22:20;20.40;83.00
3298;DHT22;1661;53.572;10.174;2023-09-07T06:24:47;20.50;82.90
3298;DHT22;1661;53.572;10.174;2023-09-07T06:27:13;20.60;82.90
3298;DHT22;1661;53.572;10.174;2023-09-07T06:29:40;20.70;82.50
3298;DHT22;1661;53.572;10.174;2023-09-07T06:32:08;20.80;81.80
3298;DHT22;1661;53.572;10.174;2023-09-07T06:34:36;21.00;81.30
3298;DHT22;1661;53.572;10.174;2023-09-07T06:37:04;21.10;80.90
3298;DHT22;1661;53.572;10.174;2023-09-07T06:39:31;21.20;80.80
3298;DHT22;1661;53.572;10.174;2023-09-07T06:41:57;21.30;80.50
3298;DHT22;1661;53.572;10.174;2023-09-07T06:44:24;21.30;80.30
3298;DHT22;1661;53.572;10.174;2023-09-07T06:46:51;21.30;80.10
3298;DHT22;1661;53.572;10.174;2023-09-07T06:49:19;21.40;80.20
3298;DHT22;1661;53.572;10.174;2023-09-07T06:51:46;21.60;79.90
3298;DHT22;1661;53.572;10.174;2023-09-07T06:54:13;21.70;79.40
3298;DHT22;1661;53.572;10.174;2023-09-07T06:56:40;21.80;78.90
3298;DHT22;1661;53.572;10.174;2023-09-07T06:59:07;21.80;78.70
3298;DHT22;1661;53.572;10.174;2023-09-07T07:01:34;21.90;78.60
3298;DHT22;1661;53.572;10.174;2023-09-07T07:04:01;22.10;78.40
3298;DHT22;1661;53.572;10.174;2023-09-07T07:06:29;22.20;77.90
3298;DHT22;1661;53.572;10.174;2023-09-07T07:08:56;22.40;77.70
3298;DHT22;1661;53.572;10.174;2023-09-07T07:11:22;22.60;77.30
3298;DHT22;1661;53.572;10.174;2023-09-07T07:13:49;22.70;76.10
3298;DHT22;1661;53.572;10.174;2023-09-07T07:16:16;22.90;75.90
3298;DHT22;1661;53.572;10.174;2023-09-07T07:18:43;23.00;75.70
3298;DHT22;1661;53.572;10.174;2023-09-07T07:21:10;23.10;74.90
3298;DHT22;1661;53.572;10.174;2023-09-07T07:23:38;23.10;74.40
3298;DHT22;1661;53.572;10.174;2023-09-07T07:26:05;23.20;74.20
3298;DHT22;1661;53.572;10.174;2023-09-07T07:28:32;23.30;74.20
3298;DHT22;1661;53.572;10.174;2023-09-07T07:30:58;23.30;74.10
3298;DHT22;1661;53.572;10.174;2023-09-07T07:33:33;23.50;73.80
3298;DHT22;1661;53.572;10.174;2023-09-07T07:35:59;23.60;73.70
3298;DHT22;1661;53.572;10.174;2023-09-07T07:38:26;23.70;73.50
3298;DHT22;1661;53.572;10.174;2023-09-07T07:40:55;23.90;73.10
3298;DHT22;1661;53.572;10.174;2023-09-07T07:43:22;24.00;72.50
3298;DHT22;1661;53.572;10.174;2023-09-07T07:45:48;24.10;71.90
3298;DHT22;1661;53.572;10.174;2023-09-07T07:48:15;24.30;71.90
3298;DHT22;1661;53.572;10.174;2023-09-07T07:50:42;24.50;71.40
3298;DHT22;1661;53.572;10.174;2023-09-07T07:53:09;24.60;70.50
3298;DHT22;1661;53.572;10.174;2023-09-07T07:55:36;24.80;70.10
3298;DHT22;1661;53.572;10.174;2023-09-07T07:58:06;25.00;69.90
3298;DHT22;1661;53.572;10.174;2023-09-07T08:00:34;25.10;68.90
3298;DHT22;1661;53.572;10.174;2023-09-07T08:03:01;25.20;67.70
3298;DHT22;1661;53.572;10.174;2023-09-07T08:05:28;25.30;67.90
3298;DHT22;1661;53.572;10.174;2023-09-07T08:07:56;25.40;67.50
3298;DHT22;1661;53.572;10.174;2023-09-07T08:10:23;25.50;67.30
3298;DHT22;1661;53.572;10.174;2023-09-07T08:12:53;25.70;66.90
3298;DHT22;1661;53.572;10.174;2023-09-07T08:15:22;25.90;67.20
3298;DHT22;1661;53.572;10.174;2023-09-07T08:17:50;26.10;66.80
3298;DHT22;1661;53.572;10.174;2023-09-07T08:20:17;26.30;66.00
3298;DHT22;1661;53.572;10.174;2023-09-07T08:22:44;26.50;66.20
3298;DHT22;1661;53.572;10.174;2023-09-07T08:25:12;26.70;66.10
3298;DHT22;1661;53.572;10.174;2023-09-07T08:27:39;26.80;65.20
3298;DHT22;1661;53.572;10.174;2023-09-07T08:30:12;26.90;63.50
3298;DHT22;1661;53.572;10.174;2023-09-07T08:32:42;27.00;63.40
3298;DHT22;1661;53.572;10.174;2023-09-07T08:35:10;27.00;63.00
3298;DHT22;1661;53.572;10.174;2023-09-07T08:37:38;27.20;63.70
3298;DHT22;1661;53.572;10.174;2023-09-07T08:40:06;27.40;63.80
3298;DHT22;1661;53.572;10.174;2023-09-07T08:42:35;27.60;62.90
3298;DHT22;1661;53.572;10.174;2023-09-07T08:45:03;27.70;61.60
3298;DHT22;1661;53.572;10.174;2023-09-07T08:47:34;27.80;61.30
3298;DHT22;1661;53.572;10.174;2023-09-07T08:50:02;27.90;60.30
3298;DHT22;1661;53.572;10.174;2023-09-07T08:52:31;28.00;61.00
3298;DHT22;1661;53.572;10.174;2023-09-07T08:54:58;28.10;59.40
3298;DHT22;1661;53.572;10.174;2023-09-07T08:57:27;28.20;59.40
3298;DHT22;1661;53.572;10.174;2023-09-07T08:59:56;28.30;59.20
3298;DHT22;1661;53.572;10.174;2023-09-07T09:02:23;28.50;59.00
3298;DHT22;1661;53.572;10.174;2023-09-07T09:04:50;28.60;59.40
3298;DHT22;1661;53.572;10.174;2023-09-07T09:07:19;28.80;58.60
3298;DHT22;1661;53.572;10.174;2023-09-07T09:09:46;29.00;58.10
3298;DHT22;1661;53.572;10.174;2023-09-07T09:12:13;29.20;57.80
3298;DHT22;1661;53.572;10.174;2023-09-07T09:14:42;29.30;57.80
3298;DHT22;1661;53.572;10.174;2023-09-07T09:17:11;29.50;57.00
3298;DHT22;1661;53.572;10.174;2023-09-07T09:19:39;29.60;56.00
3298;DHT22;1661;53.572;10.174;2023-09-07T09:22:07;29.70;55.10
3298;DHT22;1661;53.572;10.174;2023-09-07T09:24:35;29.90;55.30
3298;DHT22;1661;53.572;10.174;2023-09-07T09:27:02;30.00;54.90
3298;DHT22;1661;53.572;10.174;2023-09-07T09:29:31;30.00;53.80
3298;DHT22;1661;53.572;10.174;2023-09-07T09:32:00;30.00;53.90
3298;DHT22;1661;53.572;10.174;2023-09-07T09:34:32;30.00;54.00
3298;DHT22;1661;53.572;10.174;2023-09-07T09:36:59;29.90;54.10
3298;DHT22;1661;53.572;10.174;2023-09-07T09:39:26;30.10;55.00
3298;DHT22;1661;53.572;10.174;2023-09-07T09:41:54;30.20;53.80
3298;DHT22;1661;53.572;10.174;2023-09-07T09:44:22;30.20;52.20
3298;DHT22;1661;53.572;10.174;2023-09-07T09:46:52;30.10;52.70
3298;DHT22;1661;53.572;10.174;2023-09-07T09:49:20;30.20;53.50
3298;DHT22;1661;53.572;10.174;2023-09-07T09:51:48;30.30;54.40
3298;DHT22;1661;53.572;10.174;2023-09-07T09:54:16;30.50;52.80
3298;DHT22;1661;53.572;10.174;2023-09-07T09:56:43;30.60;52.70
3298;DHT22;1661;53.572;10.174;2023-09-07T09:59:13;30.70;52.00
3298;DHT22;1661;53.572;10.174;2023-09-07T10:01:43;30.80;52.90
3298;DHT22;1661;53.572;10.174;2023-09-07T10:04:12;30.90;52.30
3298;DHT22;1661;53.572;10.174;2023-09-07T10:06:49;31.10;52.00
3298;DHT22;1661;53.572;10.174;2023-09-07T10:09:16;31.20;50.90
3298;DHT22;1661;53.572;10.174;2023-09-07T10:11:51;31.10;50.90
3298;DHT22;1661;53.572;10.174;2023-09-07T10:14:20;31.30;51.80
3298;DHT22;1661;53.572;10.174;2023-09-07T10:16:48;31.50;51.30
3298;DHT22;1661;53.572;10.174;2023-09-07T10:19:17;31.50;50.10
3298;DHT22;1661;53.572;10.174;2023-09-07T10:21:45;31.60;50.10
3298;DHT22;1661;53.572;10.174;2023-09-07T10:24:12;31.70;49.80
3298;DHT22;1661;53.572;10.174;2023-09-07T10:26:56;31.80;49.80
3298;DHT22;1661;53.572;10.174;2023-09-07T10:29:25;31.90;49.00
3298;DHT22;1661;53.572;10.174;2023-09-07T10:31:52;31.80;49.00
3298;DHT22;1661;53.572;10.174;2023-09-07T10:34:19;31.80;48.80
3298;DHT22;1661;53.572;10.174;2023-09-07T10:36:47;31.80;48.30
3298;DHT22;1661;53.572;10.174;2023-09-07T10:39:16;31.90;48.70
3298;DHT22;1661;53.572;10.174;2023-09-07T10:41:44;32.00;49.30
3298;DHT22;1661;53.572;10.174;2023-09-07T10:44:11;32.00;48.40
3298;DHT22;1661;53.572;10.174;2023-09-07T10:46:40;32.20;47.90
3298;DHT22;1661;53.572;10.174;2023-09-07T10:49:08;32.20;47.80
3298;DHT22;1661;53.572;10.174;2023-09-07T10:51:41;32.20;47.20
3298;DHT22;1661;53.572;10.174;2023-09-07T10:54:16;32.30;47.60
3298;DHT22;1661;53.572;10.174;2023-09-07T10:56:45;32.30;47.50
3298;DHT22;1661;53.572;10.174;2023-09-07T10:59:13;32.40;46.90
3298;DHT22;1661;53.572;10.174;2023-09-07T11:01:41;32.40;47.00
3298;DHT22;1661;53.572;10.174;2023-09-07T11:04:08;32.40;45.80
3298;DHT22;1661;53.572;10.174;2023-09-07T11:06:37;32.30;46.80
3298;DHT22;1661;53.572;10.174;2023-09-07T11:09:04;32.30;45.70
3298;DHT22;1661;53.572;10.174;2023-09-07T11:11:34;32.10;45.60
3298;DHT22;1661;53.572;10.174;2023-09-07T11:14:03;32.20;47.60
3298;DHT22;1661;53.572;10.174;2023-09-07T11:16:30;32.50;47.30
3298;DHT22;1661;53.572;10.174;2023-09-07T11:19:02;32.60;46.20
3298;DHT22;1661;53.572;10.174;2023-09-07T11:21:30;32.70;45.60
3298;DHT22;1661;53.572;10.174;2023-09-07T11:23:58;32.80;45.80
3298;DHT22;1661;53.572;10.174;2023-09-07T11:26:25;32.80;45.50
3298;DHT22;1661;53.572;10.174;2023-09-07T11:28:52;32.80;44.70
3298;DHT22;1661;53.572;10.174;2023-09-07T11:31:19;32.90;45.30
3298;DHT22;1661;53.572;10.174;2023-09-07T11:33:47;32.90;44.80
3298;DHT22;1661;53.572;10.174;2023-09-07T11:36:16;33.00;45.20
3298;DHT22;1661;53.572;10.174;2023-09-07T11:38:43;33.00;45.50
3298;DHT22;1661;53.572;10.174;2023-09-07T11:41:11;33.00;44.40
3298;DHT22;1661;53.572;10.174;2023-09-07T11:43:38;33.10;45.20
3298;DHT22;1661;53.572;10.174;2023-09-07T11:46:05;33.30;44.70
3298;DHT22;1661;53.572;10.174;2023-09-07T11:48:32;33.40;45.50
3298;DHT22;1661;53.572;10.174;2023-09-07T11:51:00;33.30;43.60
3298;DHT22;1661;53.572;10.174;2023-09-07T11:53:28;33.20;44.70
3298;DHT22;1661;53.572;10.174;2023-09-07T11:55:56;33.10;44.50
3298;DHT22;1661;53.572;10.174;2023-09-07T11:58:24;33.20;45.80
3298;DHT22;1661;53.572;10.174;2023-09-07T12:00:52;33.30;44.10
3298;DHT22;1661;53.572;10.174;2023-09-07T12:03:19;33.20;44.50
3298;DHT22;1661;53.572;10.174;2023-09-07T12:05:46;33.20;44.90
3298;DHT22;1661;53.572;10.174;2023-09-07T12:08:12;33.30;45.00
3298;DHT22;1661;53.572;10.174;2023-09-07T12:10:41;33.40;44.50
3298;DHT22;1661;53.572;10.174;2023-09-07T12:13:08;33.50;45.20
3298;DHT22;1661;53.572;10.174;2023-09-07T12:15:35;33.60;43.60
3298;DHT22;1661;53.572;10.174;2023-09-07T12:18:02;33.70;44.10
3298;DHT22;1661;53.572;10.174;2023-09-07T12:20:29;33.80;43.50
3298;DHT22;1661;53.572;10.174;2023-09-07T12:22:55;33.90;43.70
3298;DHT22;1661;53.572;10.174;2023-09-07T12:25:22;33.90;44.50
3298;DHT22;1661;53.572;10.174;2023-09-07T12:27:52;33.90;43.50
3298;DHT22;1661;53.572;10.174;2023-09-07T12:30:19;33.90;41.90
3298;DHT22;1661;53.572;10.174;2023-09-07T12:32:45;33.90;43.00
3298;DHT22;1661;53.572;10.174;2023-09-07T12:35:12;33.90;43.70
3298;DHT22;1661;53.572;10.174;2023-09-07T12:37:40;34.00;43.20
3298;DHT22;1661;53.572;10.174;2023-09-07T12:40:08;34.00;41.60
3298;DHT22;1661;53.572;10.174;2023-09-07T12:42:39;34.00;41.80
3298;DHT22;1661;53.572;10.174;2023-09-07T12:45:08;34.00;41.10
3298;DHT22;1661;53.572;10.174;2023-09-07T12:47:36;34.00;40.10
3298;DHT22;1661;53.572;10.174;2023-09-07T12:50:03;34.10;40.90
3298;DHT22;1661;53.572;10.174;2023-09-07T12:52:30;34.20;40.60
3298;DHT22;1661;53.572;10.174;2023-09-07T12:54:57;34.20;41.00
3298;DHT22;1661;53.572;10.174;2023-09-07T12:57:24;34.30;41.10
3298;DHT22;1661;53.572;10.174;2023-09-07T12:59:50;34.30;40.50
3298;DHT22;1661;53.572;10.174;2023-09-07T13:02:19;34.00;39.50
3298;DHT22;1661;53.572;10.174;2023-09-07T13:04:45;33.90;41.30
3298;DHT22;1661;53.572;10.174;2023-09-07T13:07:12;33.90;41.50
3298;DHT22;1661;53.572;10.174;2023-09-07T13:09:39;33.90;40.70
3298;DHT22;1661;53.572;10.174;2023-09-07T13:12:06;33.90;41.60
3298;DHT22;1661;53.572;10.174;2023-09-07T13:14:33;34.10;41.40
3298;DHT22;1661;53.572;10.174;2023-09-07T13:17:00;34.10;40.40
3298;DHT22;1661;53.572;10.174;2023-09-07T13:19:28;34.10;39.90
3298;DHT22;1661;53.572;10.174;2023-09-07T13:21:55;34.10;40.40
3298;DHT22;1661;53.572;10.174;2023-09-07T13:24:22;34.20;40.90
3298;DHT22;1661;53.572;10.174;2023-09-07T13:26:50;34.10;41.10
3298;DHT22;1661;53.572;10.174;2023-09-07T13:29:17;34.10;40.90
3298;DHT22;1661;53.572;10.174;2023-09-07T13:31:44;34.10;40.30
3298;DHT22;1661;53.572;10.174;2023-09-07T13:34:11;34.10;40.70
3298;DHT22;1661;53.572;10.174;2023-09-07T13:36:39;34.10;40.60
3298;DHT22;1661;53.572;10.174;2023-09-07T13:39:06;34.30;41.60
3298;DHT22;1661;53.572;10.174;2023-09-07T13:41:32;34.40;41.10
3298;DHT22;1661;53.572;10.174;2023-09-07T13:43:59;34.40;40.10
3298;DHT22;1661;53.572;10.174;2023-09-07T13:46:26;34.40;40.20
3298;DHT22;1661;53.572;10.174;2023-09-07T13:48:53;34.30;40.80
3298;DHT22;1661;53.572;10.174;2023-09-07T13:51:20;34.40;41.20
3298;DHT22;1661;53.572;10.174;2023-09-07T13:53:48;34.50;41.90
3298;DHT22;1661;53.572;10.174;2023-09-07T13:56:15;34.70;41.40
3298;DHT22;1661;53.572;10.174;2023-09-07T13:58:42;34.80;38.90
3298;DHT22;1661;53.572;10.174;2023-09-07T14:01:09;34.80;40.70
3298;DHT22;1661;53.572;10.174;2023-09-07T14:03:36;34.80;39.70
3298;DHT22;1661;53.572;10.174;2023-09-07T14:06:03;34.90;39.50
3298;DHT22;1661;53.572;10.174;2023-09-07T14:08:30;35.00;39.90
3298;DHT22;1661;53.572;10.174;2023-09-07T14:11:00;35.00;39.90
3298;DHT22;1661;53.572;10.174;2023-09-07T14:13:27;35.10;41.00
3298;DHT22;1661;53.572;10.174;2023-09-07T14:15:53;35.30;41.80
3298;DHT22;1661;53.572;10.174;2023-09-07T14:18:20;35.40;39.90
3298;DHT22;1661;53.572;10.174;2023-09-07T14:20:47;35.50;39.60
3298;DHT22;1661;53.572;10.174;2023-09-07T14:23:14;35.50;39.20
3298;DHT22;1661;53.572;10.174;2023-09-07T14:25:40;35.40;39.60
3298;DHT22;1661;53.572;10.174;2023-09-07T14:28:11;35.30;39.30
3298;DHT22;1661;53.572;10.174;2023-09-07T14:30:38;35.20;40.20
3298;DHT22;1661;53.572;10.174;2023-09-07T14:33:05;35.20;40.30
3298;DHT22;1661;53.572;10.174;2023-09-07T14:35:32;35.30;39.80
3298;DHT22;1661;53.572;10.174;2023-09-07T14:37:59;35.30;40.80
3298;DHT22;1661;53.572;10.174;2023-09-07T14:40:26;35.30;40.30
3298;DHT22;1661;53.572;10.174;2023-09-07T14:42:52;35.30;38.20
3298;DHT22;1661;53.572;10.174;2023-09-07T14:45:24;35.10;38.40
3298;DHT22;1661;53.572;10.174;2023-09-07T14:47:51;35.10;39.40
3298;DHT22;1661;53.572;10.174;2023-09-07T14:50:18;35.10;39.00
3298;DHT22;1661;53.572;10.174;2023-09-07T14:52:45;35.00;39.30
3298;DHT22;1661;53.572;10.174;2023-09-07T14:55:13;35.00;38.80
3298;DHT22;1661;53.572;10.174;2023-09-07T14:57:40;34.90;38.50
3298;DHT22;1661;53.572;10.174;2023-09-07T15:00:10;34.90;39.80
3298;DHT22;1661;53.572;10.174;2023-09-07T15:02:38;34.80;38.30
3298;DHT22;1661;53.572;10.174;2023-09-07T15:05:05;34.80;39.90
3298;DHT22;1661;53.572;10.174;2023-09-07T15:07:32;34.80;39.30
3298;DHT22;1661;53.572;10.174;2023-09-07T15:09:59;34.70;38.70
3298;DHT22;1661;53.572;10.174;2023-09-07T15:12:26;34.70;39.50
3298;DHT22;1661;53.572;10.174;2023-09-07T15:14:53;34.50;37.90
3298;DHT22;1661;53.572;10.174;2023-09-07T15:17:19;34.40;39.00
3298;DHT22;1661;53.572;10.174;2023-09-07T15:19:47;34.40;38.20
3298;DHT22;1661;53.572;10.174;2023-09-07T15:22:14;34.30;39.20
3298;DHT22;1661;53.572;10.174;2023-09-07T15:24:41;34.30;38.20
3298;DHT22;1661;53.572;10.174;2023-09-07T15:27:09;34.20;38.40
3298;DHT22;1661;53.572;10.174;2023-09-07T15:29:36;34.20;38.40
3298;DHT22;1661;53.572;10.174;2023-09-07T15:32:03;34.10;39.40
3298;DHT22;1661;53.572;10.174;2023-09-07T15:34:31;34.10;38.80
3298;DHT22;1661;53.572;10.174;2023-09-07T15:37:00;34.10;40.90
3298;DHT22;1661;53.572;10.174;2023-09-07T15:39:27;34.10;38.50
3298;DHT22;1661;53.572;10.174;2023-09-07T15:41:54;34.10;38.10
3298;DHT22;1661;53.572;10.174;2023-09-07T15:44:21;34.00;39.40
3298;DHT22;1661;53.572;10.174;2023-09-07T15:46:49;34.00;38.80